Meteógrafos Informações Meteorológicas em tempo real
Base aérea de Santa Cruz
15-12-2019 21:56

Temperatura atual: 28 graus 82 F    Umidade relativa: 65 %
Velocidade do vento: 06 nós 10 Km/h    Direção: 350 graus N
Ajuste do altímetro ..: 1013 HPA
Visibilidade: Ótima    Tempo presente: Céu Limpo

Observação
Data Hora BRTTempo°CUmidadePressãoVentoVisib.
15/12 - 21:56   Céu Limpo 28° 65% 1013 Norte/10 km/h OK
15/12 - 20:56   Céu Limpo 29° 58% 1012 Norte-nordeste/7 km/h OK
15/12 - 19:56   Céu Limpo 30° 51% 1021 Norte-nordeste/10 km/h OK
15/12 - 18:56   Céu Limpo 32° 43% 1012 Norte/12 km/h OK
15/12 - 17:55   Não Disponível 35° 32% 1012 Norte-nordeste/23 km/h OK
15/12 - 16:56   Não Disponível 36° 32% 1012 Norte/19 km/h OK
15/12 - 15:56   Não Disponível 36° 37% 1012 Norte-nordeste/23 km/h OK
15/12 - 14:56   Não Disponível 36° 37% 1013 Norte-nordeste/27 km/h OK
15/12 - 13:56   Poucas nuvens esparsas 35° 41% 1014 Norte/23 km/h OK
15/12 - 12:56   Poucas nuvens esparsas 34° 46% 1015 Norte/25 km/h OK
15/12 - 11:56   Poucas nuvens esparsas 33° 49% 1015 Norte/21 km/h OK
15/12 - 10:56   Poucas nuvens esparsas 32° 52% 1016 Norte/21 km/h OK
15/12 - 09:56   Poucas nuvens esparsas 30° 62% 1016 Norte/16 km/h OK
15/12 - 08:56   Não Disponível 28° 65% 1016 Norte/27 km/h OK
15/12 - 07:56   Não Disponível 26° 83% 1016 Norte-nordeste/9 km/h OK
15/12 - 06:56   Parcialmente Nublado 24° 94% 1016 Norte-nordeste/3 km/h OK
15/12 - 05:56   Parcialmente Nublado 23° 83% 1016 Norte-nordeste/7 km/h OK
15/12 - 04:56   Parcialmente Nublado 23° 88% 1016 Nordeste/7 km/h OK
15/12 - 03:56   Parcialmente Nublado 23° 88% 1016 Norte/7 km/h OK
15/12 - 02:56   Céu Encoberto 24° 88% 1016 Nordeste/3 km/h OK
15/12 - 01:56   Céu Encoberto 24° 94% 1017 Norte/0 km/h OK
15/12 - 00:56   Céu Encoberto 25° 88% 1017 Norte/0 km/h OK
14/12 - 23:56   Céu Encoberto 25° 88% 1018 Norte/0 km/h OK
14/12 - 22:56   Céu Encoberto 25° 83% 1018 Sul-sudeste/3 km/h OK

Termo de Uso  |   Links Úteis  |   Imprensa  |  Anuncie  |  Fale Conosco  |  Versão Celular  |   Política de Privacidade

Apolo11.com - Todos os direitos reservados - 2000 - 2019

"Amargas são as lágrimas derramadas, mas ainda mais amargas são as que não se derramam" - Provérbio irlandês